KSAW

Sawyer International Airport

Marquette, Michigan, USA
METAR KSAW 212345Z 03009KT 10SM SKC 16/08 A2995
Observed Flight Rules
Jun-21 @ 23:45 UTC (9 minutes ago) Visual Flight Rules
Wind Visibility Clouds
30° at 9 knots 10 miles
  • Clear skies
Temperatures Readings
Current 16°C / 61°F
Dewpoint 8°C / 46°F
Humidity 59%
Altimeter 29.95" Hg
Pressure 1014 hPa
Elevation 372
METAR KSAW 212345Z 03009KT 10SM SKC 16/08 A2995
Observed Flight Rules
Jun-21 @ 23:45 UTC
(9 minutes ago)
VFR
Wind Visibility
30° at 9 knots 10 miles
Clouds
  • Clear skies
Temperature Dewpoint
16°C / 61°F 8°C / 46°F
Humidity Altimeter Pressure
59% 29.95" Hg 1014 hPa